Time;durP1;ratioP1;P1;durP2;ratioP2;P2;SDS_P1;SDS_P2;PMS_P1;PMS_P2;Temp;Humidity;BMP_temperature;BMP_pressure;BME280_temperature;BME280_humidity;BME280_pressure;Samples;Min_cycle;Max_cycle;Signal;HPM_P1;HPM_P2
2023/01/29 00:01:37;;;;;;;14.93;9.98;;;2.90;99.90;;;;;;5066210;28;20041;-39
2023/01/29 00:04:03;;;;;;;15.77;10.57;;;2.90;99.90;;;;;;5066463;28;20044;-39
2023/01/29 00:06:29;;;;;;;16.77;11.00;;;2.90;99.90;;;;;;5048302;28;20036;-39
2023/01/29 00:08:55;;;;;;;17.23;10.63;;;2.90;99.90;;;;;;5066167;28;20041;-39
2023/01/29 00:11:22;;;;;;;17.92;11.07;;;2.90;99.90;;;;;;5048300;28;20083;-39
2023/01/29 00:13:48;;;;;;;16.40;10.50;;;2.90;99.90;;;;;;5066304;28;20036;-39
2023/01/29 00:16:14;;;;;;;18.98;12.30;;;2.90;99.90;;;;;;5066357;28;20398;-39
2023/01/29 00:18:40;;;;;;;18.85;11.32;;;2.90;99.90;;;;;;5066086;28;20151;-39
2023/01/29 00:21:15;;;;;;;18.95;12.13;;;2.90;99.90;;;;;;5066161;28;20216;-39
2023/01/29 00:23:41;;;;;;;19.42;11.70;;;2.90;99.90;;;;;;5066247;28;20041;-39
2023/01/29 00:26:07;;;;;;;19.58;12.57;;;2.90;99.90;;;;;;5066055;28;20110;-39
2023/01/29 00:28:33;;;;;;;19.67;11.27;;;2.90;99.90;;;;;;5065142;28;20036;-37
2023/01/29 00:31:09;;;;;;;20.38;11.48;;;2.90;99.90;;;;;;5065813;28;20474;-36
2023/01/29 00:33:35;;;;;;;19.25;13.20;;;2.90;99.90;;;;;;5065854;28;20049;-36
2023/01/29 00:36:03;;;;;;;21.00;13.48;;;3.00;99.90;;;;;;5065433;28;20094;-36
2023/01/29 00:38:29;;;;;;;20.67;13.70;;;3.00;99.90;;;;;;5066240;28;20048;-36
2023/01/29 00:46:23;;;;;;;19.60;13.32;;;3.00;99.90;;;;;;5069403;28;20499;-35
2023/01/29 00:48:49;;;;;;;20.15;13.07;;;3.00;99.90;;;;;;5069332;28;20068;-35
2023/01/29 00:51:14;;;;;;;23.63;14.23;;;3.00;99.90;;;;;;5069063;28;20475;-35
2023/01/29 00:53:40;;;;;;;21.33;14.93;;;3.00;99.90;;;;;;5069110;28;20794;-35
2023/01/29 00:56:06;;;;;;;22.00;15.05;;;3.00;99.90;;;;;;5068888;28;20052;-35
2023/01/29 00:58:34;;;;;;;20.48;13.98;;;2.90;99.90;;;;;;5068909;28;20449;-35
2023/01/29 01:01:01;;;;;;;24.25;14.32;;;2.90;99.90;;;;;;5068002;28;20521;-35
2023/01/29 01:03:27;;;;;;;23.98;15.52;;;2.90;99.90;;;;;;5068503;28;20047;-35
2023/01/29 01:06:07;;;;;;;23.63;13.93;;;2.90;99.90;;;;;;5050455;28;20093;-35
2023/01/29 01:11:18;;;;;;;23.13;15.35;;;2.90;99.90;;;;;;5068541;28;20059;-35
2023/01/29 01:13:43;;;;;;;23.75;15.80;;;2.90;99.90;;;;;;5068691;28;20052;-35
2023/01/29 01:16:15;;;;;;;26.40;15.43;;;2.90;99.90;;;;;;5068225;28;20049;-35
2023/01/29 01:18:42;;;;;;;22.52;15.02;;;2.90;99.90;;;;;;5049397;28;20090;-36
2023/01/29 01:21:07;;;;;;;25.83;16.42;;;2.90;99.90;;;;;;5067684;28;20394;-35
2023/01/29 01:23:34;;;;;;;29.30;16.50;;;2.90;99.90;;;;;;5067400;28;20036;-35
2023/01/29 01:26:00;;;;;;;23.98;16.77;;;2.90;99.90;;;;;;5067119;28;20048;-36
2023/01/29 01:28:26;;;;;;;25.15;16.45;;;2.90;99.90;;;;;;5067208;28;20040;-36
2023/01/29 01:30:52;;;;;;;25.00;16.67;;;3.00;99.90;;;;;;5068109;28;20049;-35
2023/01/29 01:33:18;;;;;;;21.40;15.27;;;2.90;99.90;;;;;;5066903;28;20045;-35
2023/01/29 01:35:43;;;;;;;21.63;14.98;;;3.00;99.90;;;;;;5067910;28;20059;-35
2023/01/29 01:38:10;;;;;;;22.98;15.95;;;3.00;99.90;;;;;;5067899;28;20084;-35
2023/01/29 01:40:42;;;;;;;23.35;15.77;;;3.00;99.90;;;;;;5068069;28;20750;-35
2023/01/29 01:43:08;;;;;;;23.30;16.08;;;2.90;99.90;;;;;;5068486;28;20131;-35
2023/01/29 01:45:35;;;;;;;27.15;14.95;;;3.00;99.90;;;;;;5066751;28;20032;-35
2023/01/29 01:48:23;;;;;;;26.05;17.00;;;3.00;99.90;;;;;;5068145;28;20136;-35
2023/01/29 01:50:56;;;;;;;24.95;15.93;;;3.00;99.90;;;;;;5067950;28;20095;-35
2023/01/29 01:53:29;;;;;;;24.15;16.02;;;3.00;99.90;;;;;;5067608;28;20178;-35
2023/01/29 01:55:59;;;;;;;24.40;16.75;;;3.00;99.90;;;;;;5067975;28;20036;-35
2023/01/29 01:58:30;;;;;;;25.45;16.27;;;3.00;99.90;;;;;;5067349;28;20044;-35
2023/01/29 02:00:56;;;;;;;25.33;17.70;;;3.10;99.90;;;;;;5067568;28;20041;-35
2023/01/29 02:11:43;;;;;;;28.35;16.52;;;3.10;99.90;;;;;;5067331;28;20517;-35
2023/01/29 02:14:10;;;;;;;24.73;17.95;;;3.10;99.90;;;;;;5067332;28;20055;-35
2023/01/29 02:16:36;;;;;;;29.92;20.35;;;3.10;99.90;;;;;;5067587;28;20056;-35
2023/01/29 02:19:06;;;;;;;28.35;18.80;;;3.10;99.90;;;;;;5067521;28;20059;-35
2023/01/29 02:22:01;;;;;;;26.88;17.73;;;3.10;99.90;;;;;;5066235;28;20052;-35
2023/01/29 02:24:43;;;;;;;28.95;18.40;;;3.10;99.90;;;;;;5067185;28;20583;-35
2023/01/29 02:27:18;;;;;;;28.33;18.95;;;3.10;99.90;;;;;;5067490;28;20063;-35
2023/01/29 02:29:52;;;;;;;28.23;18.48;;;3.10;99.90;;;;;;5067327;28;20047;-35
2023/01/29 02:32:23;;;;;;;26.90;18.08;;;3.10;99.90;;;;;;5067398;28;20398;-35
2023/01/29 02:37:52;;;;;;;31.65;18.25;;;3.10;99.90;;;;;;5066730;28;20044;-35
2023/01/29 02:40:27;;;;;;;;;;;3.10;99.90;;;;;;5067595;28;20182;-35
2023/01/29 02:43:06;;;;;;;30.00;18.83;;;3.10;99.90;;;;;;5066936;28;19999;-35
2023/01/29 02:45:57;;;;;;;30.83;20.25;;;3.10;99.90;;;;;;5066705;28;20040;-35
2023/01/29 02:48:35;;;;;;;29.92;17.65;;;3.10;99.90;;;;;;5066987;28;20052;-35
2023/01/29 02:51:49;;;;;;;28.45;18.88;;;3.10;99.90;;;;;;5049089;28;20044;-35
2023/01/29 02:54:43;;;;;;;24.98;17.48;;;3.10;99.90;;;;;;5035614;28;20063;-35
2023/01/29 02:57:24;;;;;;;29.67;18.70;;;3.10;99.90;;;;;;5067075;28;20083;-35
2023/01/29 03:00:13;;;;;;;30.08;18.80;;;3.10;99.90;;;;;;5066755;28;20124;-35
2023/01/29 03:02:57;;;;;;;27.02;18.73;;;3.10;99.90;;;;;;5066435;28;20057;-35
2023/01/29 03:05:49;;;;;;;29.33;18.98;;;3.10;99.90;;;;;;5047684;28;20052;-35
2023/01/29 03:08:22;;;;;;;29.27;19.13;;;3.10;99.90;;;;;;5030731;28;20129;-35
2023/01/29 03:10:55;;;;;;;26.08;18.23;;;3.10;99.90;;;;;;5066594;28;20040;-35
2023/01/29 03:13:31;;;;;;;32.42;19.88;;;3.10;99.90;;;;;;5066890;28;20056;-35
2023/01/29 03:16:07;;;;;;;26.95;18.73;;;3.10;99.90;;;;;;5066487;28;20123;-35
2023/01/29 03:18:44;;;;;;;30.63;18.27;;;3.10;99.90;;;;;;5066062;28;20389;-35
2023/01/29 03:32:20;;;;;;;26.50;17.20;;;3.10;99.90;;;;;;5066255;28;20438;-36
2023/01/29 03:34:52;;;;;;;29.70;18.15;;;3.10;99.90;;;;;;5065984;28;20044;-35
2023/01/29 03:37:35;;;;;;;24.63;16.20;;;3.20;99.90;;;;;;5047849;28;20064;-35
2023/01/29 03:40:03;;;;;;;24.73;16.70;;;3.20;99.90;;;;;;5066336;28;20052;-35
2023/01/29 03:43:04;;;;;;;27.40;18.33;;;3.20;99.90;;;;;;5066155;28;20041;-35
2023/01/29 03:45:46;;;;;;;26.27;17.40;;;3.20;99.90;;;;;;5065725;28;20158;-35
2023/01/29 03:48:24;;;;;;;25.95;17.30;;;3.20;99.90;;;;;;5065003;28;20101;-35
2023/01/29 03:51:10;;;;;;;25.13;15.85;;;4.10;99.90;;;;;;5066055;28;20483;-35
2023/01/29 03:53:47;;;;;;;24.80;16.15;;;3.30;99.90;;;;;;5065980;28;20087;-35
2023/01/29 03:56:25;;;;;;;24.85;16.40;;;3.30;99.90;;;;;;5066392;28;20432;-35
2023/01/29 03:59:13;;;;;;;25.98;17.40;;;3.30;99.90;;;;;;5066032;28;20447;-35
2023/01/29 04:02:09;;;;;;;27.55;18.45;;;3.30;99.90;;;;;;5065918;28;20043;-35
2023/01/29 04:04:36;;;;;;;25.92;17.27;;;3.30;99.90;;;;;;5063852;28;20156;-35
2023/01/29 04:07:16;;;;;;;24.48;16.75;;;3.30;99.90;;;;;;5048133;28;20045;-35
2023/01/29 04:09:50;;;;;;;25.38;16.02;;;3.30;99.90;;;;;;5066136;28;20040;-35
2023/01/29 04:12:20;;;;;;;26.35;17.85;;;3.30;99.90;;;;;;5065982;28;20119;-35
2023/01/29 04:14:48;;;;;;;26.83;17.77;;;4.10;99.90;;;;;;5065444;28;20128;-35
2023/01/29 04:17:20;;;;;;;26.65;15.85;;;3.30;99.90;;;;;;5067674;28;20394;-35
2023/01/29 04:19:46;;;;;;;29.05;17.90;;;3.30;99.90;;;;;;5068537;28;20041;-35
2023/01/29 04:22:26;;;;;;;24.50;16.85;;;3.30;99.90;;;;;;5068795;28;20809;-35
2023/01/29 04:24:53;;;;;;;27.30;17.40;;;4.00;99.90;;;;;;5051134;28;20084;-35
2023/01/29 04:27:27;;;;;;;24.50;16.58;;;3.30;99.90;;;;;;5069447;28;20051;-35
2023/01/29 04:29:55;;;;;;;24.17;17.00;;;3.30;99.90;;;;;;5069351;28;20124;-35
2023/01/29 04:33:06;;;;;;;26.00;16.35;;;3.30;99.90;;;;;;5069157;28;20051;-35
2023/01/29 04:35:47;;;;;;;26.40;15.98;;;3.30;99.90;;;;;;5069403;28;20059;-35
2023/01/29 04:38:43;;;;;;;25.95;16.02;;;3.30;99.90;;;;;;5069385;28;20060;-35
2023/01/29 04:41:28;;;;;;;28.40;17.80;;;3.30;99.90;;;;;;5069303;28;20486;-35
2023/01/29 04:44:11;;;;;;;25.30;17.08;;;3.30;99.90;;;;;;5069289;28;20048;-35
2023/01/29 04:47:11;;;;;;;27.60;17.90;;;3.30;99.90;;;;;;5051171;28;20048;-35
2023/01/29 04:49:48;;;;;;;27.45;18.45;;;3.30;99.90;;;;;;5069335;28;20068;-35
2023/01/29 04:52:28;;;;;;;28.58;17.85;;;3.30;99.90;;;;;;5069391;28;20044;-35
2023/01/29 04:55:04;;;;;;;24.80;17.40;;;3.30;99.90;;;;;;5069080;28;20367;-35
2023/01/29 04:57:52;;;;;;;25.20;17.05;;;3.30;99.90;;;;;;5069202;28;20086;-35
2023/01/29 05:00:28;;;;;;;27.02;17.52;;;3.30;99.90;;;;;;5068972;28;20082;-35
2023/01/29 05:02:55;;;;;;;31.73;18.55;;;3.30;99.90;;;;;;5068446;28;20559;-36
2023/01/29 05:05:21;;;;;;;25.83;17.65;;;3.30;99.90;;;;;;5069055;28;20084;-36
2023/01/29 05:07:48;;;;;;;28.88;18.33;;;3.30;99.90;;;;;;5068706;28;20731;-36
2023/01/29 05:10:18;;;;;;;29.60;18.63;;;3.30;99.90;;;;;;5067330;28;20553;-36
2023/01/29 05:12:48;;;;;;;25.95;18.20;;;3.60;99.90;;;;;;5068550;28;20084;-36
2023/01/29 05:15:18;;;;;;;27.25;17.73;;;3.30;99.90;;;;;;5050598;28;20101;-36
2023/01/29 05:17:44;;;;;;;33.05;19.55;;;3.30;99.90;;;;;;5068318;28;20044;-36
2023/01/29 05:20:12;;;;;;;27.08;17.20;;;3.30;99.90;;;;;;5050577;28;20422;-36
2023/01/29 05:22:40;;;;;;;30.45;19.00;;;3.30;99.90;;;;;;5068840;28;20066;-36
2023/01/29 05:25:20;;;;;;;27.20;17.88;;;3.30;99.90;;;;;;5068478;28;20123;-36
2023/01/29 05:30:35;;;;;;;31.25;19.73;;;3.30;99.90;;;;;;5068330;28;20513;-36
2023/01/29 05:33:01;;;;;;;30.60;19.48;;;3.30;99.90;;;;;;5068095;28;20048;-36
2023/01/29 05:35:27;;;;;;;31.50;18.00;;;3.30;99.90;;;;;;5067804;28;20078;-36
2023/01/29 05:37:55;;;;;;;24.08;17.23;;;3.30;99.90;;;;;;5068009;28;20056;-36
2023/01/29 05:40:22;;;;;;;29.75;19.13;;;3.40;99.90;;;;;;5068395;28;20153;-35
2023/01/29 05:42:47;;;;;;;28.42;18.83;;;3.40;99.90;;;;;;5068112;28;20521;-35
2023/01/29 05:45:13;;;;;;;30.15;19.15;;;3.40;99.90;;;;;;5068662;28;20091;-35
2023/01/29 05:47:39;;;;;;;30.92;20.58;;;3.40;99.90;;;;;;5068598;28;20032;-35
2023/01/29 05:50:05;;;;;;;28.48;20.50;;;3.30;99.90;;;;;;5068511;28;20458;-35
2023/01/29 05:52:31;;;;;;;33.85;21.98;;;3.30;99.90;;;;;;5068341;28;20044;-35
2023/01/29 05:54:56;;;;;;;27.55;18.88;;;3.30;99.90;;;;;;5068204;28;20047;-35
2023/01/29 05:57:22;;;;;;;27.52;18.80;;;3.30;99.90;;;;;;5068700;28;20048;-35
2023/01/29 05:59:47;;;;;;;29.48;20.45;;;3.30;99.90;;;;;;5068870;28;20089;-35
2023/01/29 06:02:13;;;;;;;31.80;21.77;;;3.20;99.90;;;;;;5068523;28;20037;-35
2023/01/29 06:04:39;;;;;;;31.98;21.10;;;3.20;99.90;;;;;;5067775;28;20128;-35
2023/01/29 06:07:04;;;;;;;32.30;21.75;;;3.20;99.90;;;;;;5067884;28;20048;-35
2023/01/29 06:09:30;;;;;;;30.88;21.33;;;3.20;99.90;;;;;;5067649;28;20055;-35
2023/01/29 06:11:56;;;;;;;30.45;19.90;;;3.10;99.90;;;;;;5067226;28;20118;-35
2023/01/29 06:14:21;;;;;;;31.13;21.33;;;3.20;99.90;;;;;;5067667;28;20094;-35
2023/01/29 06:16:47;;;;;;;28.65;20.58;;;3.10;99.90;;;;;;5067017;28;20044;-35
2023/01/29 06:19:13;;;;;;;32.75;23.15;;;3.20;99.90;;;;;;5067346;28;20040;-35
2023/01/29 06:21:38;;;;;;;30.23;21.67;;;3.20;99.90;;;;;;5067525;28;20051;-35
2023/01/29 06:24:04;;;;;;;30.48;20.63;;;3.30;99.90;;;;;;5067306;28;20040;-35
2023/01/29 06:26:30;;;;;;;37.38;22.40;;;3.30;99.90;;;;;;5067324;28;20041;-35
2023/01/29 06:28:55;;;;;;;33.67;21.48;;;3.30;99.90;;;;;;5066738;28;20155;-35
2023/01/29 06:31:21;;;;;;;29.60;20.20;;;3.30;99.90;;;;;;5065178;28;20037;-35
2023/01/29 06:33:47;;;;;;;30.15;20.70;;;3.30;99.90;;;;;;5066410;28;20037;-35
2023/01/29 06:36:12;;;;;;;28.30;19.83;;;3.30;99.90;;;;;;5066867;28;20121;-36
2023/01/29 06:38:38;;;;;;;29.23;19.75;;;3.30;99.90;;;;;;5048699;28;20060;-35
2023/01/29 06:41:11;;;;;;;29.30;21.13;;;3.40;99.90;;;;;;5066309;28;20120;-35
2023/01/29 06:43:38;;;;;;;31.35;20.15;;;3.40;99.90;;;;;;5066747;28;20462;-35
2023/01/29 06:46:07;;;;;;;31.65;21.52;;;3.40;99.90;;;;;;5066578;28;20659;-35
2023/01/29 06:48:32;;;;;;;27.48;19.67;;;3.40;99.90;;;;;;5066548;28;20049;-35
2023/01/29 06:51:03;;;;;;;28.73;19.83;;;3.40;99.90;;;;;;5066859;28;20090;-35
2023/01/29 06:53:29;;;;;;;34.33;21.27;;;3.40;99.90;;;;;;5066426;28;20054;-35
2023/01/29 06:55:55;;;;;;;28.92;19.38;;;3.40;99.90;;;;;;5067038;28;20052;-35
2023/01/29 06:58:20;;;;;;;30.55;21.17;;;3.90;99.90;;;;;;5066645;28;20052;-35
2023/01/29 07:00:46;;;;;;;29.90;21.30;;;3.40;99.90;;;;;;5066994;28;20040;-35
2023/01/29 07:03:12;;;;;;;29.20;21.55;;;3.50;99.90;;;;;;5066806;28;20513;-35
2023/01/29 07:05:38;;;;;;;28.30;21.02;;;3.50;99.90;;;;;;5064847;28;20066;-35
2023/01/29 07:08:04;;;;;;;24.92;18.85;;;3.50;99.90;;;;;;5066267;28;20033;-35
2023/01/29 07:10:30;;;;;;;27.88;20.45;;;3.50;99.90;;;;;;5065655;28;20478;-35
2023/01/29 07:12:57;;;;;;;25.65;19.85;;;3.50;99.90;;;;;;5066418;28;20098;-35
2023/01/29 07:15:23;;;;;;;29.63;22.02;;;3.50;99.90;;;;;;5065927;28;20269;-35
2023/01/29 07:18:00;;;;;;;29.30;20.45;;;3.50;99.90;;;;;;5065199;28;20050;-35
2023/01/29 07:20:30;;;;;;;32.80;22.38;;;3.50;99.90;;;;;;5065940;28;20051;-35
2023/01/29 07:22:57;;;;;;;29.65;21.45;;;3.50;99.90;;;;;;5066171;28;20124;-35
2023/01/29 07:25:24;;;;;;;29.55;21.90;;;3.50;99.90;;;;;;5066422;28;20098;-35
2023/01/29 07:27:49;;;;;;;30.67;21.30;;;3.50;99.90;;;;;;5066542;28;20040;-35
2023/01/29 07:30:16;;;;;;;32.15;21.33;;;3.50;99.90;;;;;;5066332;28;20063;-35
2023/01/29 07:32:42;;;;;;;29.73;21.30;;;3.50;99.90;;;;;;5066027;28;20048;-35
2023/01/29 07:35:08;;;;;;;27.70;21.30;;;3.50;99.90;;;;;;5066174;28;20047;-35
2023/01/29 07:37:34;;;;;;;29.92;21.65;;;3.50;99.90;;;;;;5065660;28;20071;-35
2023/01/29 07:40:00;;;;;;;29.10;20.65;;;3.50;99.90;;;;;;5066243;28;20067;-35
2023/01/29 07:42:25;;;;;;;32.25;22.42;;;3.50;99.90;;;;;;5065548;28;20414;-35
2023/01/29 07:44:51;;;;;;;31.38;20.48;;;3.50;99.90;;;;;;5066151;28;20041;-35
2023/01/29 07:47:17;;;;;;;27.65;21.27;;;3.50;99.90;;;;;;5066076;28;20127;-35
2023/01/29 07:49:42;;;;;;;27.70;21.70;;;3.50;99.90;;;;;;5066679;28;20443;-35
2023/01/29 07:52:08;;;;;;;28.75;20.50;;;3.50;99.90;;;;;;5066306;28;20044;-35
2023/01/29 07:54:34;;;;;;;30.25;20.63;;;3.50;99.90;;;;;;5066455;28;20449;-35
2023/01/29 07:56:59;;;;;;;30.45;21.88;;;3.50;99.90;;;;;;5066068;28;20086;-35
2023/01/29 07:59:25;;;;;;;34.03;23.23;;;2.20;99.90;;;;;;5065982;28;20135;-35
2023/01/29 08:01:51;;;;;;;30.80;22.58;;;3.50;99.90;;;;;;5065898;28;20480;-35
2023/01/29 08:04:16;;;;;;;29.95;21.55;;;3.40;99.90;;;;;;5065773;28;20098;-35
2023/01/29 08:06:42;;;;;;;32.97;21.08;;;3.40;99.90;;;;;;5064630;28;20120;-35
2023/01/29 08:09:08;;;;;;;30.40;21.85;;;3.40;99.90;;;;;;5048160;28;20036;-36
2023/01/29 08:11:34;;;;;;;33.50;22.20;;;3.60;99.90;;;;;;5066300;28;20093;-35
2023/01/29 08:13:59;;;;;;;30.83;20.92;;;3.30;99.90;;;;;;5066396;28;20044;-35
2023/01/29 08:16:25;;;;;;;34.08;23.00;;;3.30;99.90;;;;;;5065991;28;20093;-35
2023/01/29 08:18:51;;;;;;;33.25;24.17;;;3.30;99.90;;;;;;5047519;28;20052;-35
2023/01/29 08:21:17;;;;;;;35.75;22.80;;;3.30;99.90;;;;;;5065938;28;20399;-35
2023/01/29 08:23:42;;;;;;;33.75;21.70;;;3.30;99.90;;;;;;5066161;28;20068;-35
2023/01/29 08:26:08;;;;;;;31.63;22.48;;;3.40;99.90;;;;;;5065778;28;20040;-35
2023/01/29 08:28:34;;;;;;;31.40;21.98;;;3.40;99.90;;;;;;5065884;28;20393;-35
2023/01/29 08:31:00;;;;;;;34.47;24.10;;;3.50;99.90;;;;;;5065829;28;20487;-35
2023/01/29 08:33:28;;;;;;;37.35;24.77;;;3.50;99.90;;;;;;5065683;28;20044;-35
2023/01/29 08:35:53;;;;;;;34.80;24.73;;;3.60;99.90;;;;;;5065383;28;20097;-35
2023/01/29 08:38:19;;;;;;;35.70;24.27;;;3.70;99.90;;;;;;5065603;28;20438;-35
2023/01/29 08:40:45;;;;;;;33.20;22.48;;;3.80;99.90;;;;;;5048063;28;20056;-35
2023/01/29 08:43:12;;;;;;;34.05;22.67;;;3.90;99.90;;;;;;5066189;28;20115;-36
2023/01/29 08:45:40;;;;;;;31.50;22.20;;;4.00;99.90;;;;;;5065880;28;20044;-35
2023/01/29 08:48:07;;;;;;;33.63;23.58;;;4.00;99.90;;;;;;5065878;28;20028;-35
2023/01/29 08:50:33;;;;;;;34.03;23.40;;;5.30;99.90;;;;;;5065864;28;20083;-35
2023/01/29 08:53:03;;;;;;;34.42;23.33;;;4.10;99.90;;;;;;5066269;28;20072;-35
2023/01/29 08:55:28;;;;;;;31.92;22.38;;;4.10;99.90;;;;;;5065928;28;20040;-35
2023/01/29 08:57:56;;;;;;;38.33;23.73;;;4.20;99.90;;;;;;5065365;28;20044;-35
2023/01/29 09:00:22;;;;;;;34.78;23.25;;;4.20;99.90;;;;;;5065312;28;20055;-35
2023/01/29 09:02:47;;;;;;;33.25;23.88;;;4.20;99.90;;;;;;5066596;28;20446;-35
2023/01/29 09:05:13;;;;;;;32.55;22.27;;;4.90;99.90;;;;;;5068675;28;20055;-35
2023/01/29 09:07:39;;;;;;;35.78;24.23;;;4.30;99.90;;;;;;5050865;28;20063;-36
2023/01/29 09:10:05;;;;;;;30.27;22.25;;;4.80;99.90;;;;;;5069057;28;20036;-35
2023/01/29 09:12:31;;;;;;;31.55;22.38;;;4.40;99.90;;;;;;5068723;28;20115;-35
2023/01/29 09:14:56;;;;;;;35.75;22.50;;;4.40;99.90;;;;;;5068581;28;20087;-35
2023/01/29 09:17:22;;;;;;;33.00;21.90;;;4.50;99.90;;;;;;5068356;28;20071;-35
2023/01/29 09:19:48;;;;;;;30.75;21.02;;;4.50;99.90;;;;;;5068442;28;20513;-35
2023/01/29 09:22:14;;;;;;;30.70;22.35;;;5.70;99.90;;;;;;5068607;28;20051;-35
2023/01/29 09:24:39;;;;;;;34.47;21.92;;;5.80;99.90;;;;;;5068667;28;20032;-35
2023/01/29 09:27:05;;;;;;;30.27;22.58;;;4.60;99.90;;;;;;5068934;28;20563;-36
2023/01/29 09:29:31;;;;;;;31.00;22.23;;;4.60;99.90;;;;;;5068862;28;20375;-35
2023/01/29 09:31:56;;;;;;;34.33;23.77;;;5.70;99.90;;;;;;5068881;28;20116;-35
2023/01/29 09:34:22;;;;;;;32.63;21.85;;;4.70;99.90;;;;;;5067599;28;20086;-35
2023/01/29 09:36:48;;;;;;;35.63;21.83;;;4.70;99.90;;;;;;5068072;28;20040;-35
2023/01/29 09:39:13;;;;;;;33.90;22.92;;;4.70;99.90;;;;;;5068022;28;20064;-35
2023/01/29 09:41:50;;;;;;;34.38;23.85;;;4.70;99.90;;;;;;5068008;28;20118;-35
2023/01/29 09:44:53;;;;;;;34.50;22.40;;;4.70;99.90;;;;;;5068453;28;20641;-35
2023/01/29 09:47:21;;;;;;;33.80;22.20;;;4.80;99.90;;;;;;5068143;28;20037;-36
2023/01/29 09:49:54;;;;;;;30.50;20.10;;;4.80;99.90;;;;;;5068321;28;20104;-35
2023/01/29 09:52:26;;;;;;;35.00;23.45;;;4.90;99.90;;;;;;5068603;28;20048;-36
2023/01/29 09:55:22;;;;;;;33.13;22.75;;;5.00;99.90;;;;;;5067774;28;20119;-36
2023/01/29 09:58:15;;;;;;;32.15;21.77;;;5.00;99.90;;;;;;5067593;28;20117;-36
2023/01/29 10:00:49;;;;;;;;;;;4.90;99.90;;;;;;5068340;28;20048;-36
2023/01/29 10:03:18;;;;;;;33.47;21.23;;;4.90;99.90;;;;;;5067401;28;19933;-36
2023/01/29 10:06:08;;;;;;;37.20;21.83;;;4.90;99.90;;;;;;5066941;28;20139;-38
2023/01/29 10:08:48;;;;;;;31.67;21.63;;;4.90;99.90;;;;;;5067387;28;20152;-38
2023/01/29 10:11:25;;;;;;;33.13;21.50;;;4.80;99.90;;;;;;5067176;28;20037;-37
2023/01/29 10:14:18;;;;;;;34.47;21.98;;;4.80;99.90;;;;;;5065802;28;20064;-38
2023/01/29 10:16:59;;;;;;;32.38;21.50;;;4.80;99.90;;;;;;5067307;28;20033;-37
2023/01/29 10:19:49;;;;;;;32.42;21.95;;;5.60;99.90;;;;;;5067946;28;20043;-37
2023/01/29 10:22:31;;;;;;;32.03;21.73;;;4.70;99.90;;;;;;5067596;28;20553;-38
2023/01/29 10:25:01;;;;;;;35.13;23.05;;;4.70;99.90;;;;;;5067692;28;20040;-38
2023/01/29 10:27:33;;;;;;;33.67;21.75;;;5.90;99.90;;;;;;5066911;28;20037;-37
2023/01/29 10:30:05;;;;;;;47.22;24.50;;;5.80;99.90;;;;;;5066501;28;20643;-37
2023/01/29 10:32:34;;;;;;;37.78;23.92;;;4.90;99.90;;;;;;5065879;28;20052;-38
2023/01/29 10:35:11;;;;;;;34.38;22.38;;;4.80;99.90;;;;;;5066667;28;20036;-38
2023/01/29 10:37:41;;;;;;;33.55;21.92;;;4.80;99.90;;;;;;5065903;28;20543;-38
2023/01/29 10:40:33;;;;;;;31.10;22.75;;;4.80;99.90;;;;;;5048219;28;20105;-38
2023/01/29 10:43:14;;;;;;;31.52;21.73;;;4.80;99.90;;;;;;5066229;28;20039;-38
2023/01/29 10:45:59;;;;;;;36.20;22.65;;;4.80;99.90;;;;;;5066030;28;20125;-37
2023/01/29 10:49:13;;;;;;;33.78;23.10;;;4.80;99.90;;;;;;5065820;28;20043;-38
2023/01/29 10:51:48;;;;;;;33.90;23.15;;;4.90;99.90;;;;;;5028046;28;20136;-38
2023/01/29 10:54:48;;;;;;;36.90;24.08;;;5.00;99.90;;;;;;5066396;28;20040;-38
2023/01/29 10:57:37;;;;;;;33.75;23.77;;;5.10;99.90;;;;;;5066528;28;20151;-38
2023/01/29 11:00:11;;;;;;;38.30;24.13;;;5.10;99.90;;;;;;5066006;28;20136;-37
2023/01/29 11:02:47;;;;;;;34.08;22.58;;;5.00;99.90;;;;;;5065836;28;20083;-38
2023/01/29 11:05:26;;;;;;;33.08;23.67;;;5.00;99.90;;;;;;5065658;28;20040;-37
2023/01/29 11:08:05;;;;;;;33.65;23.52;;;4.90;99.90;;;;;;5065484;28;20044;-38
2023/01/29 11:10:36;;;;;;;33.22;21.42;;;4.90;99.90;;;;;;5065289;28;20045;-38
2023/01/29 11:13:03;;;;;;;35.22;23.55;;;4.80;99.90;;;;;;5065787;28;20051;-37
2023/01/29 11:15:33;;;;;;;38.00;26.05;;;4.80;99.90;;;;;;5065361;28;20561;-38
2023/01/29 11:18:13;;;;;;;39.05;25.27;;;5.90;99.90;;;;;;5065338;28;20052;-38
2023/01/29 11:20:40;;;;;;;37.78;24.50;;;4.80;99.90;;;;;;5065598;28;20036;-38
2023/01/29 11:23:27;;;;;;;38.78;25.02;;;4.80;99.90;;;;;;5065840;28;20050;-37
2023/01/29 11:25:54;;;;;;;39.95;25.20;;;4.90;99.90;;;;;;5047503;28;20041;-37
2023/01/29 11:28:38;;;;;;;39.47;25.58;;;4.80;99.90;;;;;;5065745;28;20520;-38
2023/01/29 11:31:21;;;;;;;37.10;23.90;;;4.70;99.90;;;;;;5065766;28;20063;-38
2023/01/29 11:33:49;;;;;;;36.35;23.60;;;4.70;99.90;;;;;;5065505;28;20604;-38
2023/01/29 11:36:37;;;;;;;42.22;26.63;;;4.60;99.90;;;;;;5065688;28;20685;-38
2023/01/29 11:39:21;;;;;;;39.92;25.58;;;4.60;99.90;;;;;;5065287;28;20410;-38
2023/01/29 11:42:04;;;;;;;44.17;26.58;;;4.50;99.90;;;;;;5065413;28;20036;-38
2023/01/29 11:44:29;;;;;;;;;;;4.60;99.90;;;;;;5065776;28;20051;-38
2023/01/29 11:46:59;;;;;;;38.95;24.77;;;4.60;99.90;;;;;;5064926;28;19921;-38
2023/01/29 11:49:33;;;;;;;38.35;24.88;;;4.60;99.90;;;;;;5065143;28;20119;-38
2023/01/29 11:52:02;;;;;;;41.50;26.35;;;4.60;99.90;;;;;;5065319;28;20052;-38
2023/01/29 11:54:34;;;;;;;42.17;26.50;;;4.70;99.90;;;;;;5047442;28;20037;-37
2023/01/29 11:57:00;;;;;;;42.83;27.90;;;4.60;99.90;;;;;;5065552;28;20075;-38
2023/01/29 11:59:38;;;;;;;39.47;27.75;;;4.60;99.90;;;;;;5065538;28;20279;-38
2023/01/29 12:02:18;;;;;;;42.70;27.67;;;4.60;99.90;;;;;;5046720;28;20070;-38
2023/01/29 12:04:45;;;;;;;43.60;27.98;;;4.60;99.90;;;;;;5065287;28;20052;-37
2023/01/29 12:07:14;;;;;;;42.22;27.33;;;4.60;99.90;;;;;;5064636;28;20106;-38
2023/01/29 12:09:40;;;;;;;43.47;28.70;;;4.50;99.90;;;;;;5064821;28;20393;-38
2023/01/29 12:12:29;;;;;;;44.40;28.27;;;4.60;99.90;;;;;;5064056;28;20044;-37
2023/01/29 12:15:04;;;;;;;42.92;26.00;;;4.60;99.90;;;;;;5064733;28;20040;-38
2023/01/29 12:17:34;;;;;;;44.55;27.65;;;4.60;99.90;;;;;;5064767;28;20044;-38
2023/01/29 12:20:16;;;;;;;40.42;27.52;;;4.60;99.90;;;;;;5064515;28;20063;-38
2023/01/29 12:23:13;;;;;;;40.53;25.00;;;4.70;99.90;;;;;;5063188;28;20290;-38
2023/01/29 12:25:49;;;;;;;45.13;30.05;;;4.80;99.90;;;;;;5019726;28;20143;-38
2023/01/29 12:28:51;;;;;;;42.17;26.48;;;4.90;99.90;;;;;;5064655;28;20045;-38
2023/01/29 12:31:22;;;;;;;42.33;26.50;;;5.00;99.90;;;;;;5064371;28;20563;-37
2023/01/29 12:33:54;;;;;;;43.17;26.25;;;5.10;99.90;;;;;;5064674;28;20040;-38
2023/01/29 12:36:20;;;;;;;36.05;23.13;;;5.20;99.90;;;;;;5064707;28;20116;-38
2023/01/29 12:38:46;;;;;;;40.45;25.77;;;5.60;99.90;;;;;;5066890;28;20052;-38
2023/01/29 12:41:40;;;;;;;39.72;26.67;;;5.30;99.90;;;;;;5067723;28;20155;-38
2023/01/29 12:44:15;;;;;;;35.70;24.70;;;5.40;99.90;;;;;;5068191;28;20663;-38
2023/01/29 12:46:49;;;;;;;35.80;23.90;;;5.40;99.90;;;;;;5068211;28;20051;-38
2023/01/29 12:49:29;;;;;;;33.45;21.83;;;5.40;99.90;;;;;;5068016;28;20611;-37
2023/01/29 12:52:06;;;;;;;36.03;22.83;;;6.10;99.90;;;;;;5067924;28;20048;-38
2023/01/29 12:54:42;;;;;;;33.28;22.70;;;5.40;99.90;;;;;;5068485;28;20135;-38
2023/01/29 12:57:24;;;;;;;38.28;23.63;;;5.40;99.90;;;;;;5067819;28;20040;-38
2023/01/29 13:00:01;;;;;;;32.92;22.45;;;5.30;99.90;;;;;;5067621;28;20048;-38
2023/01/29 13:02:35;;;;;;;33.45;22.17;;;5.40;99.90;;;;;;5067491;28;20084;-37
2023/01/29 13:05:17;;;;;;;33.85;21.27;;;5.40;99.90;;;;;;5067186;28;20036;-38
2023/01/29 13:07:50;;;;;;;30.63;20.83;;;5.30;99.90;;;;;;5066591;28;20129;-38
2023/01/29 13:10:30;;;;;;;29.90;20.85;;;5.40;99.90;;;;;;5068213;28;20072;-38
2023/01/29 13:13:17;;;;;;;32.10;20.77;;;5.30;99.90;;;;;;5067538;28;20040;-38
2023/01/29 13:15:44;;;;;;;30.40;19.63;;;5.30;99.90;;;;;;5068047;28;20143;-38
2023/01/29 13:18:31;;;;;;;28.80;19.70;;;5.30;99.90;;;;;;5067591;28;20476;-38
2023/01/29 13:20:58;;;;;;;27.17;19.45;;;5.30;99.90;;;;;;5067028;28;20055;-37
2023/01/29 13:23:35;;;;;;;28.90;19.88;;;5.20;99.90;;;;;;5067896;28;20118;-38
2023/01/29 13:26:00;;;;;;;26.33;17.83;;;5.10;99.90;;;;;;5067455;28;20761;-37
2023/01/29 13:28:27;;;;;;;29.45;17.98;;;5.20;99.90;;;;;;5067315;28;20067;-38
2023/01/29 13:31:31;;;;;;;25.52;19.23;;;5.20;99.90;;;;;;5066479;28;20049;-38
2023/01/29 13:34:15;;;;;;;25.00;17.08;;;5.20;99.90;;;;;;5067312;28;20049;-38
2023/01/29 13:36:55;;;;;;;30.83;21.02;;;5.10;99.90;;;;;;5068277;28;20036;-38
2023/01/29 13:39:49;;;;;;;29.70;19.70;;;5.50;99.90;;;;;;5068070;28;20053;-38